Terminal Aerodrome Forecast
Issued by NWS New Orleans/Baton Rouge, LA

Home | Current Version | Previous Version | Text Only | Print | Product List | Glossary On
Versions: 1 2 3 4 5 6 7 8 9 10 11 12 13 14 15 16 17 18 19 20 21
577
FTUS44 KLIX 290521
TAFBTR
TAF
KBTR 290521Z 2906/3006 12006KT P6SM BKN010 BKN060
     FM291000 12006KT 5SM BR BKN005
     FM291500 14011KT P6SM BKN010
     FM291700 15012KT P6SM BKN035
     FM292100 16013KT P6SM SCT200
     FM300000 16011KT P6SM BKN110=

USA.gov is the U.S. government's official web portal to all federal, state and local government web resources and services.